createdAt,value
2022-09-15T00:04:20.323Z,23.3
2022-09-15T00:09:57.432Z,23.3
2022-09-15T00:15:19.712Z,23.3
2022-09-15T00:21:00.121Z,23.3
2022-09-15T00:26:36.313Z,23.3
2022-09-15T00:32:13.473Z,23.3
2022-09-15T00:37:51.648Z,23.3
2022-09-15T00:43:28.331Z,23.3
2022-09-15T00:49:29.395Z,23.3
2022-09-15T00:55:07.893Z,23.3
2022-09-15T01:00:28.569Z,23.3
2022-09-15T01:06:06.280Z,23.3
2022-09-15T01:11:28.787Z,23.3
2022-09-15T01:17:05.486Z,23.3
2022-09-15T01:22:15.286Z,23.3
2022-09-15T01:28:03.213Z,23.3
2022-09-15T01:33:42.277Z,23.3
2022-09-15T01:39:18.702Z,23.2
2022-09-15T01:44:57.270Z,23.3
2022-09-15T01:50:18.583Z,23.3
2022-09-15T01:55:54.907Z,23.2
2022-09-15T02:01:32.907Z,23.3
2022-09-15T02:07:09.779Z,23.3
2022-09-15T02:12:31.073Z,23.2
2022-09-15T02:17:22.806Z,23.2
2022-09-15T02:22:44.558Z,23.2
2022-09-15T02:28:21.432Z,23.2
2022-09-15T02:34:04.008Z,23.2
2022-09-15T02:39:40.920Z,23.2
2022-09-15T02:45:18.659Z,23.2
2022-09-15T02:50:57.081Z,23.1
2022-09-15T02:56:34.446Z,23.2
2022-09-15T03:02:12.017Z,23.1
2022-09-15T03:07:36.693Z,23.1
2022-09-15T03:13:13.906Z,23.1
2022-09-15T03:18:35.762Z,23.1
2022-09-15T03:24:13.734Z,23.1
2022-09-15T03:29:51.289Z,23.1
2022-09-15T03:35:31.730Z,23.1
2022-09-15T03:41:09.717Z,23.1
2022-09-15T03:46:51.027Z,23.1
2022-09-15T03:52:27.879Z,23.1
2022-09-15T03:58:05.992Z,23.1
2022-09-15T04:03:28.309Z,23.1
2022-09-15T04:09:09.954Z,23.1
2022-09-15T04:14:52.196Z,23.1
2022-09-15T04:20:30.352Z,23.1
2022-09-15T04:26:10.562Z,23.1
2022-09-15T04:31:51.601Z,23.1
2022-09-15T04:37:28.328Z,23.1
2022-09-15T04:43:05.390Z,23.1
2022-09-15T04:48:43.817Z,23.1
2022-09-15T04:54:23.119Z,23.1
2022-09-15T04:59:59.641Z,23.1
2022-09-15T05:05:38.827Z,23.1
2022-09-15T05:11:20.225Z,23.1
2022-09-15T05:16:57.805Z,23.1
2022-09-15T05:22:39.578Z,23
2022-09-15T05:28:18.623Z,23
2022-09-15T05:33:57.347Z,23
2022-09-15T05:39:35.426Z,23
2022-09-15T05:45:13.219Z,23
2022-09-15T05:50:50.666Z,22.9
2022-09-15T05:56:28.844Z,22.9
2022-09-15T06:02:05.322Z,22.9
2022-09-15T06:07:42.838Z,23
2022-09-15T06:13:24.659Z,22.9
2022-09-15T06:19:02.082Z,22.9
2022-09-15T06:24:40.649Z,22.9
2022-09-15T06:30:18.663Z,23
2022-09-15T06:35:55.958Z,23
2022-09-15T06:41:52.805Z,23
2022-09-15T06:47:37.680Z,23
2022-09-15T06:53:33.947Z,23
2022-09-15T06:59:11.344Z,23
2022-09-15T07:04:53.612Z,23
2022-09-15T07:10:35.232Z,23
2022-09-15T07:16:13.226Z,23
2022-09-15T07:21:51.646Z,23
2022-09-15T07:27:29.334Z,23
2022-09-15T07:33:11.144Z,23
2022-09-15T07:38:51.551Z,23.1
2022-09-15T07:44:32.972Z,23.1
2022-09-15T07:50:10.795Z,23.1
2022-09-15T07:55:49.057Z,23.1
2022-09-15T08:01:11.741Z,23.1
2022-09-15T08:06:52.945Z,23.1
2022-09-15T08:12:41.663Z,23.1
2022-09-15T08:18:19.010Z,23.1
2022-09-15T08:23:25.637Z,23.1
2022-09-15T08:28:48.169Z,23.1
2022-09-15T08:34:26.251Z,23.1
2022-09-15T08:40:03.360Z,23.1
2022-09-15T08:45:47.761Z,23.1
2022-09-15T08:51:49.037Z,23.1
2022-09-15T08:57:28.698Z,23.1
2022-09-15T09:03:07.844Z,23.1
2022-09-15T09:08:45.407Z,23.1
2022-09-15T09:13:52.434Z,23.1
2022-09-15T09:19:32.234Z,23.2
2022-09-15T09:25:26.047Z,23.2
2022-09-15T09:30:55.066Z,23.2
2022-09-15T09:36:18.835Z,23.1
2022-09-15T09:41:56.919Z,23.2
2022-09-15T09:47:35.174Z,23.2
2022-09-15T09:53:13.985Z,23.2
2022-09-15T09:58:51.224Z,23.2
2022-09-15T10:04:29.361Z,23.2
2022-09-15T10:10:08.018Z,23.2
2022-09-15T10:15:45.823Z,23.3
2022-09-15T10:21:25.045Z,23.3
2022-09-15T10:27:06.833Z,23.3
2022-09-15T10:32:14.327Z,23.3
2022-09-15T10:37:52.542Z,23.3
2022-09-15T10:43:31.187Z,23.4
2022-09-15T10:49:09.827Z,23.3
2022-09-15T10:54:47.483Z,23.3
2022-09-15T11:00:49.412Z,23.3
2022-09-15T11:06:29.337Z,23.4
2022-09-15T11:12:06.905Z,23.3
2022-09-15T11:17:51.345Z,23.4
2022-09-15T11:23:29.404Z,23.4
2022-09-15T11:29:06.887Z,23.4
2022-09-15T11:34:46.022Z,23.4
2022-09-15T11:40:27.324Z,23.4
2022-09-15T11:46:05.146Z,23.4
2022-09-15T11:51:43.278Z,23.4
2022-09-15T11:57:20.802Z,23.4
2022-09-15T12:03:04.334Z,23.4
2022-09-15T12:08:27.018Z,23.4
2022-09-15T12:14:10.857Z,23.4
2022-09-15T12:20:14.621Z,23.4
2022-09-15T12:25:52.460Z,23.4
2022-09-15T12:31:34.273Z,23.5
2022-09-15T12:37:11.552Z,23.5
2022-09-15T12:42:34.886Z,23.5
2022-09-15T12:48:12.587Z,23.5
2022-09-15T12:53:51.615Z,23.5
2022-09-15T12:59:29.723Z,23.5
2022-09-15T13:05:34.560Z,23.5
2022-09-15T13:11:17.083Z,23.5
2022-09-15T13:16:55.722Z,23.5
2022-09-15T13:22:33.921Z,23.4
2022-09-15T13:28:11.016Z,23.4
2022-09-15T13:42:20.780Z,23.5
2022-09-15T13:48:03.175Z,23.5
2022-09-15T13:53:41.682Z,23.6
2022-09-15T14:01:04.797Z,23.6
2022-09-15T14:06:43.245Z,23.6
2022-09-15T14:12:26.547Z,23.6
2022-09-15T14:18:10.332Z,23.6
2022-09-15T14:23:52.435Z,23.6
2022-09-15T14:29:34.265Z,23.6
2022-09-15T14:35:18.777Z,23.7
2022-09-15T14:40:58.079Z,23.6
